Terminal Aerodrome Forecast
Issued by NWS New Orleans/Baton Rouge, LA

Home | Current Version | Previous Version | Text Only | Print | Product List | Glossary On
Versions: 1 2 3 4 5 6 7 8 9 10 11 12
800
FTUS44 KLIX 161130
TAFBTR
TAF
KBTR 161130Z 1612/1712 03005KT P6SM OVC090
     FM161500 09006KT P6SM BKN120 BKN200
     FM170300 10008KT P6SM BKN030 BKN140
     FM170700 11010KT P6SM VCSH BKN015 BKN110 WS020/14040KT
     FM171000 12008KT 6SM -SHRA BKN008 OVC060 WS020/16040KT=

USA.gov is the U.S. government's official web portal to all federal, state and local government web resources and services.